createdAt,value
2023-02-06T00:00:11.327Z,124.03
2023-02-06T00:02:41.685Z,119.20
2023-02-06T00:05:11.544Z,139.23
2023-02-06T00:07:41.229Z,124.33
2023-02-06T00:10:11.462Z,138.47
2023-02-06T00:12:40.806Z,139.90
2023-02-06T00:15:11.062Z,126.70
2023-02-06T00:17:42.046Z,117.37
2023-02-06T00:20:12.381Z,119.93
2023-02-06T00:22:42.139Z,123.53
2023-02-06T00:25:13.606Z,113.87
2023-02-06T00:27:43.109Z,121.70
2023-02-06T00:30:12.974Z,118.70
2023-02-06T00:32:43.865Z,128.13
2023-02-06T00:35:13.360Z,140.00
2023-02-06T00:37:44.362Z,105.80
2023-02-06T00:40:14.267Z,110.50
2023-02-06T00:42:43.333Z,118.07
2023-02-06T00:45:12.786Z,115.53
2023-02-06T00:47:45.207Z,116.20
2023-02-06T00:50:14.007Z,108.97
2023-02-06T00:52:45.121Z,121.57
2023-02-06T00:55:15.848Z,117.47
2023-02-06T00:57:44.330Z,96.10
2023-02-06T01:00:14.507Z,105.57
2023-02-06T01:02:46.313Z,114.87
2023-02-06T01:05:16.481Z,117.43
2023-02-06T01:07:46.403Z,106.73
2023-02-06T01:10:15.997Z,108.37
2023-02-06T01:13:21.948Z,111.87
2023-02-06T01:29:10.822Z,109.60
2023-02-06T02:06:43.923Z,112.07
2023-02-06T02:09:41.591Z,111.63
2023-02-06T02:12:23.149Z,106.53
2023-02-06T02:15:12.842Z,117.17
2023-02-06T02:18:15.013Z,109.17
2023-02-06T02:21:29.674Z,109.70
2023-02-06T02:25:59.861Z,113.93
2023-02-06T02:35:53.284Z,126.20
2023-02-06T02:42:22.262Z,107.97
2023-02-06T02:45:11.172Z,120.40
2023-02-06T02:47:47.578Z,125.40
2023-02-06T02:50:18.716Z,126.67
2023-02-06T02:52:51.104Z,131.07
2023-02-06T02:55:22.679Z,143.73
2023-02-06T02:58:05.439Z,130.37
2023-02-06T03:00:38.970Z,125.07
2023-02-06T03:03:12.122Z,123.30
2023-02-06T03:05:51.317Z,126.23
2023-02-06T03:08:31.047Z,117.33
2023-02-06T03:11:11.802Z,109.07
2023-02-06T03:13:45.288Z,113.90
2023-02-06T03:16:19.877Z,119.60
2023-02-06T03:18:54.981Z,125.47
2023-02-06T03:21:26.648Z,117.27
2023-02-06T03:23:59.943Z,121.63
2023-02-06T03:26:30.850Z,112.77
2023-02-06T03:29:08.699Z,110.60
2023-02-06T03:31:43.607Z,112.17
2023-02-06T03:34:18.865Z,126.17
2023-02-06T03:36:49.806Z,126.67
2023-02-06T03:39:22.720Z,102.83
2023-02-06T03:41:53.041Z,112.37
2023-02-06T03:44:26.473Z,108.10
2023-02-06T03:46:57.592Z,106.70
2023-02-06T03:49:29.605Z,108.03
2023-02-06T03:52:03.812Z,94.73
2023-02-06T03:54:37.187Z,120.27
2023-02-06T03:57:11.635Z,100.10
2023-02-06T03:59:41.749Z,103.03
2023-02-06T04:02:11.684Z,106.10
2023-02-06T04:04:45.923Z,104.57
2023-02-06T04:07:20.337Z,108.50
2023-02-06T04:09:51.029Z,112.27
2023-02-06T04:12:20.312Z,93.87
2023-02-06T04:14:49.370Z,98.00
2023-02-06T04:17:36.846Z,95.03
2023-02-06T04:20:08.829Z,85.67
2023-02-06T04:22:38.513Z,96.57
2023-02-06T04:25:10.434Z,97.33
2023-02-06T04:27:39.896Z,100.43
2023-02-06T04:30:10.329Z,91.27
2023-02-06T04:32:39.728Z,109.87
2023-02-06T04:35:10.081Z,91.57
2023-02-06T04:37:39.307Z,91.67
2023-02-06T04:40:13.182Z,89.50
2023-02-06T04:42:42.477Z,92.70
2023-02-06T04:45:12.551Z,95.27
2023-02-06T04:47:41.955Z,100.23
2023-02-06T04:50:12.448Z,89.17
2023-02-06T04:52:44.075Z,92.73
2023-02-06T04:55:15.121Z,90.07
2023-02-06T04:57:45.810Z,99.63
2023-02-06T05:00:16.561Z,98.43
2023-02-06T05:02:46.100Z,94.47
2023-02-06T05:05:15.717Z,96.87
2023-02-06T05:07:44.894Z,84.40
2023-02-06T05:10:15.836Z,99.80
2023-02-06T05:12:45.329Z,85.23
2023-02-06T05:15:16.808Z,98.97
2023-02-06T05:17:46.700Z,102.40
2023-02-06T05:20:15.420Z,102.33
2023-02-06T05:22:44.398Z,101.43
2023-02-06T05:25:15.004Z,109.23
2023-02-06T05:27:44.528Z,92.67
2023-02-06T05:30:17.742Z,88.30
2023-02-06T05:32:46.481Z,96.47
2023-02-06T05:35:15.840Z,88.20
2023-02-06T05:37:44.726Z,96.50
2023-02-06T05:40:15.836Z,103.07
2023-02-06T05:42:45.202Z,92.57
2023-02-06T05:45:14.357Z,96.90
2023-02-06T05:47:45.873Z,95.90
2023-02-06T05:50:14.777Z,92.23
2023-02-06T05:52:44.017Z,89.57
2023-02-06T05:55:17.348Z,84.00
2023-02-06T05:57:49.076Z,93.80
2023-02-06T06:00:18.990Z,87.23
2023-02-06T06:02:48.126Z,83.60
2023-02-06T06:05:17.634Z,74.17
2023-02-06T06:07:46.398Z,92.07
2023-02-06T06:10:17.562Z,96.70
2023-02-06T06:12:46.757Z,104.67
2023-02-06T06:15:15.603Z,96.57
2023-02-06T06:17:44.131Z,91.27
2023-02-06T06:20:14.359Z,105.13
2023-02-06T06:22:43.334Z,84.97
2023-02-06T06:25:12.295Z,88.97
2023-02-06T06:27:42.564Z,89.03
2023-02-06T06:30:12.706Z,87.63
2023-02-06T06:32:42.230Z,76.73
2023-02-06T06:35:13.240Z,79.00
2023-02-06T06:37:42.170Z,75.20
2023-02-06T06:40:12.584Z,88.73
2023-02-06T06:42:43.141Z,79.23
2023-02-06T06:45:12.356Z,80.93
2023-02-06T06:47:41.512Z,81.03
2023-02-06T06:50:10.931Z,79.70
2023-02-06T06:52:40.077Z,91.33
2023-02-06T06:55:09.762Z,84.87
2023-02-06T06:57:39.037Z,84.83
2023-02-06T07:00:11.039Z,91.13
2023-02-06T07:02:40.564Z,77.67
2023-02-06T07:05:09.998Z,80.30
2023-02-06T07:07:39.741Z,73.07
2023-02-06T07:10:09.654Z,91.10
2023-02-06T07:12:38.550Z,79.30
2023-02-06T07:15:10.809Z,79.87
2023-02-06T07:17:39.803Z,81.33
2023-02-06T07:20:09.641Z,78.80
2023-02-06T07:22:38.703Z,87.90
2023-02-06T07:25:08.511Z,83.77
2023-02-06T07:27:40.119Z,85.83
2023-02-06T07:30:13.284Z,88.87
2023-02-06T07:32:42.181Z,92.43
2023-02-06T07:35:11.371Z,89.07
2023-02-06T07:37:40.277Z,93.50
2023-02-06T07:40:10.833Z,86.57
2023-02-06T07:42:41.915Z,81.37
2023-02-06T07:45:21.500Z,82.67
2023-02-06T07:47:52.448Z,79.90
2023-02-06T07:50:21.695Z,77.30
2023-02-06T07:52:50.349Z,100.10
2023-02-06T07:55:19.587Z,92.23
2023-02-06T07:57:48.329Z,82.77
2023-02-06T08:00:18.532Z,75.03
2023-02-06T08:02:48.816Z,74.10
2023-02-06T08:05:19.093Z,75.10
2023-02-06T08:07:48.501Z,79.27
2023-02-06T08:10:18.199Z,69.93
2023-02-06T08:12:46.969Z,74.70
2023-02-06T08:15:16.231Z,71.53
2023-02-06T08:17:45.571Z,72.90
2023-02-06T08:20:16.924Z,73.90
2023-02-06T08:22:47.580Z,69.67
2023-02-06T08:25:16.664Z,67.80
2023-02-06T08:27:47.613Z,76.13
2023-02-06T08:30:16.813Z,70.27
2023-02-06T08:32:47.249Z,76.43
2023-02-06T08:35:20.631Z,77.80
2023-02-06T08:37:50.026Z,72.10
2023-02-06T08:40:21.474Z,69.17
2023-02-06T08:42:53.119Z,76.60
2023-02-06T08:45:22.203Z,67.93
2023-02-06T08:47:52.612Z,67.40
2023-02-06T08:50:23.933Z,58.80
2023-02-06T08:52:53.048Z,59.37
2023-02-06T08:55:37.004Z,64.07
2023-02-06T08:58:06.999Z,68.33
2023-02-06T09:00:36.673Z,65.20
2023-02-06T09:03:06.367Z,66.63
2023-02-06T09:05:37.015Z,61.77
2023-02-06T09:08:06.781Z,59.17
2023-02-06T09:10:35.564Z,60.97
2023-02-06T09:13:04.791Z,60.07
2023-02-06T09:15:33.653Z,60.40
2023-02-06T09:18:02.454Z,59.67
2023-02-06T09:20:33.489Z,56.60
2023-02-06T09:23:03.717Z,52.23
2023-02-06T09:25:32.741Z,57.47
2023-02-06T09:28:02.293Z,53.70
2023-02-06T09:30:31.270Z,53.47
2023-02-06T09:33:01.304Z,50.33
2023-02-06T09:35:30.982Z,52.87
2023-02-06T09:38:00.554Z,50.33
2023-02-06T09:40:34.208Z,46.93
2023-02-06T09:43:08.737Z,48.40
2023-02-06T09:45:38.578Z,47.87
2023-02-06T09:48:18.615Z,48.00
2023-02-06T09:50:56.044Z,43.63
2023-02-06T09:53:35.167Z,42.30
2023-02-06T09:56:18.735Z,39.13
2023-02-06T09:59:08.259Z,41.17
2023-02-06T10:01:44.309Z,50.47
2023-02-06T10:04:32.519Z,41.07
2023-02-06T10:07:16.807Z,43.40
2023-02-06T10:09:51.191Z,38.83
2023-02-06T10:12:28.677Z,41.47
2023-02-06T10:15:03.883Z,33.63
2023-02-06T10:17:36.949Z,29.10
2023-02-06T10:20:13.142Z,28.03
2023-02-06T10:22:49.687Z,23.90
2023-02-06T10:25:25.172Z,25.33
2023-02-06T10:28:00.680Z,26.07
2023-02-06T10:30:41.591Z,28.43
2023-02-06T10:33:25.574Z,24.60
2023-02-06T10:36:04.860Z,21.63
2023-02-06T10:38:48.761Z,29.57
2023-02-06T10:41:29.290Z,23.50
2023-02-06T10:44:03.930Z,24.63
2023-02-06T10:46:46.814Z,23.50
2023-02-06T10:49:25.242Z,23.00
2023-02-06T10:51:58.042Z,25.13
2023-02-06T10:54:31.500Z,17.60
2023-02-06T10:57:02.623Z,20.37
2023-02-06T10:59:36.364Z,22.90
2023-02-06T11:02:25.685Z,28.47
2023-02-06T11:05:01.634Z,22.07
2023-02-06T11:07:34.598Z,23.60
2023-02-06T11:10:03.992Z,21.63
2023-02-06T11:12:37.607Z,19.07
2023-02-06T11:15:17.795Z,21.10
2023-02-06T11:17:47.468Z,22.30
2023-02-06T11:20:22.745Z,22.07
2023-02-06T11:22:53.745Z,22.67
2023-02-06T11:25:29.060Z,25.53
2023-02-06T11:28:01.251Z,19.87
2023-02-06T11:30:37.455Z,21.67
2023-02-06T11:37:38.423Z,17.30
2023-02-06T11:40:28.003Z,20.60
2023-02-06T11:47:30.150Z,16.10
2023-02-06T11:50:16.983Z,20.27
2023-02-06T11:52:48.507Z,16.90
2023-02-06T11:55:26.062Z,22.43
2023-02-06T11:58:05.262Z,22.33
2023-02-06T12:00:36.307Z,17.53
2023-02-06T12:03:08.896Z,17.00
2023-02-06T12:05:43.867Z,17.90
2023-02-06T12:08:17.235Z,17.33
2023-02-06T12:10:53.529Z,17.40
2023-02-06T12:13:25.239Z,17.70
2023-02-06T12:15:59.676Z,15.93
2023-02-06T12:18:36.202Z,15.83
2023-02-06T12:21:09.183Z,20.27
2023-02-06T12:23:43.244Z,17.50
2023-02-06T12:26:16.108Z,15.67
2023-02-06T12:28:55.517Z,15.60
2023-02-06T12:31:29.802Z,17.60
2023-02-06T12:34:12.364Z,19.93
2023-02-06T12:36:53.957Z,17.27
2023-02-06T12:39:25.720Z,14.53
2023-02-06T12:42:18.506Z,14.37
2023-02-06T12:44:52.888Z,14.47
2023-02-06T12:47:28.965Z,16.03
2023-02-06T12:50:05.004Z,15.40
2023-02-06T12:52:40.768Z,16.37
2023-02-06T12:55:18.388Z,14.67
2023-02-06T12:57:47.838Z,18.80
2023-02-06T13:00:46.738Z,14.47
2023-02-06T13:03:34.967Z,11.83
2023-02-06T13:06:19.534Z,14.97
2023-02-06T13:08:57.517Z,17.17
2023-02-06T13:11:35.296Z,17.70
2023-02-06T13:14:08.714Z,15.67
2023-02-06T13:16:45.565Z,15.67
2023-02-06T13:19:33.909Z,14.53
2023-02-06T13:22:33.831Z,16.70
2023-02-06T13:25:24.102Z,14.43
2023-02-06T13:27:54.336Z,15.10
2023-02-06T13:30:48.852Z,16.97
2023-02-06T13:33:20.877Z,17.47
2023-02-06T13:36:00.269Z,14.73
2023-02-06T13:38:41.119Z,17.37
2023-02-06T13:41:43.211Z,18.40
2023-02-06T13:44:21.563Z,16.53
2023-02-06T13:47:29.803Z,17.77
2023-02-06T13:50:29.798Z,16.40
2023-02-06T13:53:12.701Z,15.70
2023-02-06T13:55:58.550Z,17.90
2023-02-06T13:58:45.626Z,23.57
2023-02-06T14:01:20.905Z,16.47
2023-02-06T14:03:52.837Z,21.17
2023-02-06T14:06:38.734Z,17.50
2023-02-06T14:09:34.705Z,19.57
2023-02-06T14:12:33.721Z,19.13
2023-02-06T14:15:16.956Z,18.47
2023-02-06T14:18:07.598Z,19.70
2023-02-06T14:20:58.680Z,18.93
2023-02-06T14:23:40.567Z,22.53
2023-02-06T14:26:26.423Z,19.97
2023-02-06T14:29:08.809Z,23.53
2023-02-06T14:32:04.540Z,20.20
2023-02-06T14:34:47.561Z,22.97
2023-02-06T14:37:52.138Z,19.40
2023-02-06T14:40:23.560Z,20.63
2023-02-06T14:43:02.691Z,17.60
2023-02-06T14:45:42.391Z,16.00
2023-02-06T14:48:23.349Z,19.50
2023-02-06T14:50:56.741Z,22.63
2023-02-06T14:53:30.451Z,21.37
2023-02-06T14:56:15.740Z,21.27
2023-02-06T14:58:46.730Z,23.77
2023-02-06T15:01:26.052Z,27.90
2023-02-06T15:04:13.457Z,19.27
2023-02-06T15:06:44.835Z,18.23
2023-02-06T15:09:29.178Z,13.50
2023-02-06T15:12:02.435Z,20.87
2023-02-06T15:14:34.726Z,15.60
2023-02-06T15:17:05.223Z,14.50
2023-02-06T15:19:36.882Z,16.17
2023-02-06T15:22:14.604Z,15.17
2023-02-06T15:37:57.569Z,15.30
2023-02-06T15:40:32.064Z,17.30
2023-02-06T15:43:01.566Z,20.83
2023-02-06T15:45:34.599Z,20.13
2023-02-06T15:48:11.971Z,21.83
2023-02-06T15:50:41.804Z,22.53
2023-02-06T15:53:24.911Z,23.23
2023-02-06T15:55:56.711Z,22.93
2023-02-06T15:58:26.911Z,22.33
2023-02-06T16:00:58.556Z,25.97
2023-02-06T16:03:30.070Z,27.20
2023-02-06T16:05:59.417Z,23.57
2023-02-06T16:08:33.442Z,28.27
2023-02-06T16:11:05.750Z,27.23
2023-02-06T16:13:34.689Z,25.67
2023-02-06T16:16:22.599Z,35.43
2023-02-06T16:18:54.128Z,40.10
2023-02-06T16:21:27.601Z,38.50
2023-02-06T16:24:16.725Z,38.60
2023-02-06T16:26:48.269Z,33.23
2023-02-06T16:29:24.139Z,34.63
2023-02-06T16:32:00.835Z,33.77
2023-02-06T16:34:36.942Z,51.73
2023-02-06T16:37:11.143Z,55.87
2023-02-06T16:39:43.290Z,59.83
2023-02-06T16:42:17.719Z,53.20
2023-02-06T16:44:49.887Z,55.03
2023-02-06T16:47:20.769Z,42.07
2023-02-06T16:49:49.908Z,43.37
2023-02-06T16:52:22.400Z,50.70
2023-02-06T16:54:52.890Z,45.43
2023-02-06T16:57:27.638Z,49.10
2023-02-06T16:59:56.899Z,45.70
2023-02-06T17:02:26.801Z,42.70
2023-02-06T17:04:55.795Z,48.93
2023-02-06T17:07:26.928Z,47.90
2023-02-06T17:09:59.752Z,39.97
2023-02-06T17:12:28.939Z,59.07
2023-02-06T17:14:57.809Z,50.27
2023-02-06T17:17:26.656Z,53.03
2023-02-06T17:19:55.564Z,58.07
2023-02-06T17:22:24.630Z,58.33
2023-02-06T17:24:53.214Z,63.03
2023-02-06T17:27:24.505Z,55.00
2023-02-06T17:29:53.953Z,62.97
2023-02-06T17:32:23.227Z,62.17
2023-02-06T17:34:54.454Z,55.83
2023-02-06T17:37:23.545Z,62.70
2023-02-06T17:39:53.949Z,60.00
2023-02-06T17:42:25.972Z,73.07
2023-02-06T17:44:55.785Z,65.70
2023-02-06T17:47:24.641Z,62.77
2023-02-06T17:49:55.057Z,66.90
2023-02-06T17:52:23.881Z,71.60
2023-02-06T17:54:52.525Z,66.43
2023-02-06T17:57:21.235Z,75.03
2023-02-06T17:59:53.905Z,71.43
2023-02-06T18:02:22.764Z,79.37
2023-02-06T18:04:53.084Z,69.07
2023-02-06T18:07:22.452Z,74.77
2023-02-06T18:09:51.528Z,64.40
2023-02-06T18:12:20.442Z,68.43
2023-02-06T18:14:50.948Z,71.80
2023-02-06T18:17:20.302Z,72.13
2023-02-06T18:19:49.988Z,72.13
2023-02-06T18:22:22.412Z,72.60
2023-02-06T18:24:52.919Z,75.10
2023-02-06T18:27:23.345Z,90.27
2023-02-06T18:29:55.443Z,64.27
2023-02-06T18:32:24.142Z,74.10
2023-02-06T18:34:55.713Z,87.33
2023-02-06T18:37:28.184Z,71.00
2023-02-06T18:39:59.338Z,72.70
2023-02-06T18:42:50.220Z,66.60
2023-02-06T18:45:23.904Z,69.00
2023-02-06T18:47:55.742Z,64.53
2023-02-06T18:50:25.985Z,62.07
2023-02-06T18:52:55.714Z,57.43
2023-02-06T18:55:25.413Z,55.20
2023-02-06T18:57:54.685Z,53.83
2023-02-06T19:00:26.130Z,57.80
2023-02-06T19:02:55.446Z,52.97
2023-02-06T19:05:24.392Z,60.60
2023-02-06T19:07:54.907Z,63.47
2023-02-06T19:10:26.041Z,66.93
2023-02-06T19:12:55.216Z,68.50
2023-02-06T19:15:25.667Z,54.00
2023-02-06T19:17:54.822Z,60.47
2023-02-06T19:20:25.675Z,54.73
2023-02-06T19:22:55.453Z,56.10
2023-02-06T19:25:24.514Z,55.23
2023-02-06T19:27:53.865Z,60.87
2023-02-06T19:30:22.777Z,59.00
2023-02-06T19:32:52.993Z,49.20
2023-02-06T19:35:21.964Z,63.87
2023-02-06T19:37:52.119Z,63.33
2023-02-06T19:40:22.445Z,61.63
2023-02-06T19:42:51.799Z,61.97
2023-02-06T19:45:20.510Z,55.77
2023-02-06T19:47:49.501Z,59.87
2023-02-06T19:50:19.904Z,58.13
2023-02-06T19:52:48.885Z,63.47
2023-02-06T19:55:18.190Z,68.83
2023-02-06T19:57:49.255Z,83.03
2023-02-06T20:00:18.416Z,96.10
2023-02-06T20:02:47.165Z,88.53
2023-02-06T20:05:20.421Z,98.63
2023-02-06T20:07:49.214Z,97.40
2023-02-06T20:10:17.793Z,94.00
2023-02-06T20:12:46.895Z,103.60
2023-02-06T20:15:17.608Z,114.87
2023-02-06T20:17:52.439Z,118.27
2023-02-06T20:20:26.763Z,111.90
2023-02-06T20:23:02.580Z,107.07
2023-02-06T20:25:35.747Z,112.33
2023-02-06T20:28:08.869Z,92.30
2023-02-06T20:30:43.777Z,102.07
2023-02-06T20:33:19.847Z,94.70
2023-02-06T20:35:54.624Z,89.77
2023-02-06T20:38:26.669Z,85.30
2023-02-06T20:40:56.296Z,78.13
2023-02-06T20:43:27.499Z,88.10
2023-02-06T20:45:56.417Z,93.17
2023-02-06T20:48:27.375Z,85.50
2023-02-06T20:51:05.523Z,89.50
2023-02-06T20:53:36.028Z,90.60
2023-02-06T20:56:08.022Z,98.07
2023-02-06T20:58:39.298Z,82.13
2023-02-06T21:01:18.639Z,84.00
2023-02-06T21:03:49.185Z,86.07
2023-02-06T21:06:25.807Z,84.47
2023-02-06T21:09:00.368Z,80.67
2023-02-06T21:11:35.394Z,87.57
2023-02-06T21:14:12.837Z,79.10
2023-02-06T21:16:51.106Z,89.60
2023-02-06T21:19:27.625Z,87.60
2023-02-06T21:22:09.057Z,82.70
2023-02-06T21:24:39.893Z,76.63
2023-02-06T21:27:15.403Z,82.47
2023-02-06T21:29:50.842Z,82.47
2023-02-06T21:32:22.136Z,81.87
2023-02-06T21:34:52.980Z,94.27
2023-02-06T21:37:52.981Z,92.43
2023-02-06T21:40:23.120Z,109.50
2023-02-06T21:43:02.784Z,88.93
2023-02-06T21:45:31.617Z,93.33
2023-02-06T21:48:01.774Z,87.47
2023-02-06T21:50:30.838Z,93.47
2023-02-06T21:53:01.631Z,99.97
2023-02-06T21:55:33.907Z,99.90
2023-02-06T21:58:20.380Z,92.50
2023-02-06T22:00:52.264Z,121.00
2023-02-06T22:03:23.077Z,124.13
2023-02-06T22:05:52.580Z,135.80
2023-02-06T22:08:23.407Z,136.77
2023-02-06T22:10:52.211Z,153.60
2023-02-06T22:13:20.882Z,129.77
2023-02-06T22:15:52.085Z,139.17
2023-02-06T22:18:23.271Z,173.03
2023-02-06T22:20:52.428Z,122.83
2023-02-06T22:23:22.802Z,120.37
2023-02-06T22:25:53.780Z,138.63
2023-02-06T22:28:22.736Z,120.70
2023-02-06T22:30:51.490Z,133.40
2023-02-06T22:33:22.802Z,128.90
2023-02-06T22:35:52.158Z,161.50
2023-02-06T22:38:23.592Z,190.80
2023-02-06T22:41:00.019Z,233.50
2023-02-06T22:43:29.300Z,243.30
2023-02-06T22:45:58.269Z,242.23
2023-02-06T22:48:27.028Z,296.10
2023-02-06T22:50:56.113Z,247.40
2023-02-06T22:53:30.652Z,274.60
2023-02-06T22:56:13.568Z,295.67
2023-02-06T22:58:42.209Z,267.63
2023-02-06T23:01:11.095Z,233.87
2023-02-06T23:03:39.820Z,230.30
2023-02-06T23:06:10.633Z,228.63
2023-02-06T23:08:41.848Z,233.67
2023-02-06T23:11:11.516Z,262.20
2023-02-06T23:13:41.416Z,249.23
2023-02-06T23:16:11.428Z,263.67
2023-02-06T23:18:40.607Z,272.20
2023-02-06T23:21:12.438Z,239.93
2023-02-06T23:23:43.374Z,201.20
2023-02-06T23:26:14.494Z,172.87
2023-02-06T23:28:43.585Z,168.97
2023-02-06T23:31:13.236Z,148.87
2023-02-06T23:33:42.158Z,145.23
2023-02-06T23:36:14.247Z,160.70
2023-02-06T23:38:45.344Z,110.07
2023-02-06T23:41:15.537Z,115.87
2023-02-06T23:43:44.772Z,131.60
2023-02-06T23:46:15.476Z,132.67
2023-02-06T23:48:44.188Z,147.27
2023-02-06T23:51:12.706Z,138.90
2023-02-06T23:53:41.537Z,137.53
2023-02-06T23:56:15.756Z,144.73
2023-02-06T23:58:44.640Z,157.07
